sensor_id;sensor_type;location;lat;lon;timestamp;P1;durP1;ratioP1;P2;durP2;ratioP2
20110;SDS011;10216;42.658;23.248;2023-01-01T00:00:42;14.90;;;10.67;;
20110;SDS011;10216;42.658;23.248;2023-01-01T00:03:08;16.13;;;9.97;;
20110;SDS011;10216;42.658;23.248;2023-01-01T00:05:33;15.17;;;9.87;;
20110;SDS011;10216;42.658;23.248;2023-01-01T00:07:58;13.03;;;9.40;;
20110;SDS011;10216;42.658;23.248;2023-01-01T00:10:24;15.30;;;9.37;;
20110;SDS011;10216;42.658;23.248;2023-01-01T00:12:53;12.93;;;9.80;;
20110;SDS011;10216;42.658;23.248;2023-01-01T00:15:18;14.17;;;10.17;;
20110;SDS011;10216;42.658;23.248;2023-01-01T00:17:44;14.27;;;9.57;;
20110;SDS011;10216;42.658;23.248;2023-01-01T00:20:09;12.40;;;9.73;;
20110;SDS011;10216;42.658;23.248;2023-01-01T00:22:35;15.27;;;10.60;;
20110;SDS011;10216;42.658;23.248;2023-01-01T00:25:00;15.43;;;10.47;;
20110;SDS011;10216;42.658;23.248;2023-01-01T00:27:25;14.50;;;9.53;;
20110;SDS011;10216;42.658;23.248;2023-01-01T00:29:50;12.87;;;10.00;;
20110;SDS011;10216;42.658;23.248;2023-01-01T00:32:16;13.77;;;9.90;;
20110;SDS011;10216;42.658;23.248;2023-01-01T00:34:41;13.23;;;9.80;;
20110;SDS011;10216;42.658;23.248;2023-01-01T00:37:06;13.80;;;10.23;;
20110;SDS011;10216;42.658;23.248;2023-01-01T00:39:31;16.70;;;10.90;;
20110;SDS011;10216;42.658;23.248;2023-01-01T00:41:57;15.13;;;11.30;;
20110;SDS011;10216;42.658;23.248;2023-01-01T00:44:23;18.17;;;13.00;;
20110;SDS011;10216;42.658;23.248;2023-01-01T00:46:48;18.10;;;13.10;;
20110;SDS011;10216;42.658;23.248;2023-01-01T00:49:13;21.97;;;13.20;;
20110;SDS011;10216;42.658;23.248;2023-01-01T00:51:42;19.03;;;12.43;;
20110;SDS011;10216;42.658;23.248;2023-01-01T00:54:07;15.20;;;10.70;;
20110;SDS011;10216;42.658;23.248;2023-01-01T00:56:33;15.87;;;11.40;;
20110;SDS011;10216;42.658;23.248;2023-01-01T00:58:59;21.30;;;14.70;;
20110;SDS011;10216;42.658;23.248;2023-01-01T01:01:24;26.40;;;18.17;;
20110;SDS011;10216;42.658;23.248;2023-01-01T01:03:49;24.70;;;18.80;;
20110;SDS011;10216;42.658;23.248;2023-01-01T01:06:15;26.97;;;17.50;;
20110;SDS011;10216;42.658;23.248;2023-01-01T01:08:42;21.10;;;14.50;;
20110;SDS011;10216;42.658;23.248;2023-01-01T01:11:09;20.97;;;14.53;;
20110;SDS011;10216;42.658;23.248;2023-01-01T01:13:37;20.13;;;13.20;;
20110;SDS011;10216;42.658;23.248;2023-01-01T01:16:09;18.17;;;13.03;;
20110;SDS011;10216;42.658;23.248;2023-01-01T01:18:35;19.03;;;12.43;;
20110;SDS011;10216;42.658;23.248;2023-01-01T01:21:00;21.30;;;12.50;;
20110;SDS011;10216;42.658;23.248;2023-01-01T01:23:25;16.60;;;9.77;;
20110;SDS011;10216;42.658;23.248;2023-01-01T01:25:51;13.40;;;9.70;;
20110;SDS011;10216;42.658;23.248;2023-01-01T01:28:16;16.53;;;10.10;;
20110;SDS011;10216;42.658;23.248;2023-01-01T01:30:41;13.80;;;8.97;;
20110;SDS011;10216;42.658;23.248;2023-01-01T01:33:06;15.67;;;9.27;;
20110;SDS011;10216;42.658;23.248;2023-01-01T01:35:32;14.60;;;9.87;;
20110;SDS011;10216;42.658;23.248;2023-01-01T01:37:57;15.60;;;11.57;;
20110;SDS011;10216;42.658;23.248;2023-01-01T01:40:23;17.60;;;11.63;;
20110;SDS011;10216;42.658;23.248;2023-01-01T01:42:49;17.20;;;12.13;;
20110;SDS011;10216;42.658;23.248;2023-01-01T01:45:14;21.50;;;12.37;;
20110;SDS011;10216;42.658;23.248;2023-01-01T01:47:47;20.93;;;12.70;;
20110;SDS011;10216;42.658;23.248;2023-01-01T01:50:33;19.70;;;11.20;;
20110;SDS011;10216;42.658;23.248;2023-01-01T01:53:14;15.07;;;10.03;;
20110;SDS011;10216;42.658;23.248;2023-01-01T01:55:44;15.87;;;10.20;;
20110;SDS011;10216;42.658;23.248;2023-01-01T01:58:14;14.57;;;10.27;;
20110;SDS011;10216;42.658;23.248;2023-01-01T02:00:40;16.07;;;10.10;;
20110;SDS011;10216;42.658;23.248;2023-01-01T02:03:07;14.20;;;10.50;;
20110;SDS011;10216;42.658;23.248;2023-01-01T02:05:32;13.17;;;9.07;;
20110;SDS011;10216;42.658;23.248;2023-01-01T02:07:58;9.07;;;7.40;;
20110;SDS011;10216;42.658;23.248;2023-01-01T02:10:23;13.77;;;9.13;;
20110;SDS011;10216;42.658;23.248;2023-01-01T02:12:50;12.13;;;9.03;;
20110;SDS011;10216;42.658;23.248;2023-01-01T02:15:15;14.63;;;9.47;;
20110;SDS011;10216;42.658;23.248;2023-01-01T02:17:46;14.03;;;9.73;;
20110;SDS011;10216;42.658;23.248;2023-01-01T02:30:18;15.00;;;10.33;;
20110;SDS011;10216;42.658;23.248;2023-01-01T02:32:45;14.47;;;10.27;;
20110;SDS011;10216;42.658;23.248;2023-01-01T02:35:13;16.10;;;10.07;;
20110;SDS011;10216;42.658;23.248;2023-01-01T02:37:59;15.53;;;9.87;;
20110;SDS011;10216;42.658;23.248;2023-01-01T02:40:25;16.50;;;10.13;;
20110;SDS011;10216;42.658;23.248;2023-01-01T02:42:51;15.20;;;10.37;;
20110;SDS011;10216;42.658;23.248;2023-01-01T02:45:17;16.40;;;11.80;;
20110;SDS011;10216;42.658;23.248;2023-01-01T02:47:43;20.07;;;12.27;;
20110;SDS011;10216;42.658;23.248;2023-01-01T02:50:12;19.77;;;12.10;;
20110;SDS011;10216;42.658;23.248;2023-01-01T02:52:48;21.17;;;12.70;;
20110;SDS011;10216;42.658;23.248;2023-01-01T02:57:45;20.30;;;13.60;;
20110;SDS011;10216;42.658;23.248;2023-01-01T03:00:13;18.73;;;13.20;;
20110;SDS011;10216;42.658;23.248;2023-01-01T03:05:47;20.77;;;12.47;;
20110;SDS011;10216;42.658;23.248;2023-01-01T03:08:43;21.70;;;11.23;;
20110;SDS011;10216;42.658;23.248;2023-01-01T03:11:11;16.97;;;10.53;;
20110;SDS011;10216;42.658;23.248;2023-01-01T03:13:48;15.93;;;10.40;;
20110;SDS011;10216;42.658;23.248;2023-01-01T03:16:17;17.77;;;10.90;;
20110;SDS011;10216;42.658;23.248;2023-01-01T03:21:12;14.57;;;10.43;;
20110;SDS011;10216;42.658;23.248;2023-01-01T03:23:39;22.77;;;11.77;;
20110;SDS011;10216;42.658;23.248;2023-01-01T03:26:07;18.57;;;12.50;;
20110;SDS011;10216;42.658;23.248;2023-01-01T03:28:43;21.13;;;13.23;;
20110;SDS011;10216;42.658;23.248;2023-01-01T03:31:10;21.30;;;13.90;;
20110;SDS011;10216;42.658;23.248;2023-01-01T03:33:40;26.87;;;16.77;;
20110;SDS011;10216;42.658;23.248;2023-01-01T03:36:10;27.23;;;16.93;;
20110;SDS011;10216;42.658;23.248;2023-01-01T03:41:14;25.07;;;17.40;;
20110;SDS011;10216;42.658;23.248;2023-01-01T03:43:49;29.30;;;18.73;;
20110;SDS011;10216;42.658;23.248;2023-01-01T03:46:18;27.37;;;18.77;;
20110;SDS011;10216;42.658;23.248;2023-01-01T03:48:44;28.07;;;18.10;;
20110;SDS011;10216;42.658;23.248;2023-01-01T03:54:05;30.47;;;19.40;;
20110;SDS011;10216;42.658;23.248;2023-01-01T03:56:36;29.07;;;18.80;;
20110;SDS011;10216;42.658;23.248;2023-01-01T03:59:08;33.77;;;20.57;;
20110;SDS011;10216;42.658;23.248;2023-01-01T04:01:38;34.47;;;20.83;;
20110;SDS011;10216;42.658;23.248;2023-01-01T04:04:04;29.60;;;20.37;;
20110;SDS011;10216;42.658;23.248;2023-01-01T04:06:33;33.53;;;19.40;;
20110;SDS011;10216;42.658;23.248;2023-01-01T04:08:58;30.60;;;17.77;;
20110;SDS011;10216;42.658;23.248;2023-01-01T04:11:25;30.83;;;19.10;;
20110;SDS011;10216;42.658;23.248;2023-01-01T04:14:10;22.93;;;16.27;;
20110;SDS011;10216;42.658;23.248;2023-01-01T04:16:35;24.00;;;14.80;;
20110;SDS011;10216;42.658;23.248;2023-01-01T04:19:00;24.47;;;15.60;;
20110;SDS011;10216;42.658;23.248;2023-01-01T04:21:25;23.63;;;14.77;;
20110;SDS011;10216;42.658;23.248;2023-01-01T04:23:51;26.37;;;16.07;;
20110;SDS011;10216;42.658;23.248;2023-01-01T04:26:16;31.47;;;19.10;;
20110;SDS011;10216;42.658;23.248;2023-01-01T04:28:44;26.03;;;17.23;;
20110;SDS011;10216;42.658;23.248;2023-01-01T04:31:09;27.57;;;16.03;;
20110;SDS011;10216;42.658;23.248;2023-01-01T04:33:35;30.00;;;17.97;;
20110;SDS011;10216;42.658;23.248;2023-01-01T04:36:04;27.47;;;17.00;;
20110;SDS011;10216;42.658;23.248;2023-01-01T04:38:31;25.47;;;16.47;;
20110;SDS011;10216;42.658;23.248;2023-01-01T04:40:57;24.63;;;15.43;;
20110;SDS011;10216;42.658;23.248;2023-01-01T04:43:22;23.47;;;14.40;;
20110;SDS011;10216;42.658;23.248;2023-01-01T04:45:57;19.23;;;12.43;;
20110;SDS011;10216;42.658;23.248;2023-01-01T04:48:23;16.77;;;11.27;;
20110;SDS011;10216;42.658;23.248;2023-01-01T04:50:58;16.37;;;10.70;;
20110;SDS011;10216;42.658;23.248;2023-01-01T04:53:24;20.93;;;11.20;;
20110;SDS011;10216;42.658;23.248;2023-01-01T04:55:49;20.47;;;13.47;;
20110;SDS011;10216;42.658;23.248;2023-01-01T04:58:15;20.43;;;13.70;;
20110;SDS011;10216;42.658;23.248;2023-01-01T05:00:40;21.53;;;13.47;;
20110;SDS011;10216;42.658;23.248;2023-01-01T05:03:05;24.80;;;14.63;;
20110;SDS011;10216;42.658;23.248;2023-01-01T05:05:30;26.50;;;17.23;;
20110;SDS011;10216;42.658;23.248;2023-01-01T05:07:56;31.17;;;17.73;;
20110;SDS011;10216;42.658;23.248;2023-01-01T05:10:21;41.90;;;22.53;;
20110;SDS011;10216;42.658;23.248;2023-01-01T05:12:46;50.83;;;29.33;;
20110;SDS011;10216;42.658;23.248;2023-01-01T05:15:11;40.80;;;25.67;;
20110;SDS011;10216;42.658;23.248;2023-01-01T05:17:37;39.80;;;21.83;;
20110;SDS011;10216;42.658;23.248;2023-01-01T05:20:02;36.00;;;22.73;;
20110;SDS011;10216;42.658;23.248;2023-01-01T05:22:27;40.17;;;24.27;;
20110;SDS011;10216;42.658;23.248;2023-01-01T05:24:53;39.83;;;24.23;;
20110;SDS011;10216;42.658;23.248;2023-01-01T05:27:18;43.53;;;24.07;;
20110;SDS011;10216;42.658;23.248;2023-01-01T05:29:43;34.10;;;22.37;;
20110;SDS011;10216;42.658;23.248;2023-01-01T05:32:09;40.13;;;23.93;;
20110;SDS011;10216;42.658;23.248;2023-01-01T05:34:34;34.90;;;21.97;;
20110;SDS011;10216;42.658;23.248;2023-01-01T05:36:59;35.47;;;23.00;;
20110;SDS011;10216;42.658;23.248;2023-01-01T05:39:24;37.03;;;21.60;;
20110;SDS011;10216;42.658;23.248;2023-01-01T05:41:50;37.43;;;22.80;;
20110;SDS011;10216;42.658;23.248;2023-01-01T05:44:15;36.63;;;23.07;;
20110;SDS011;10216;42.658;23.248;2023-01-01T05:46:43;41.83;;;25.27;;
20110;SDS011;10216;42.658;23.248;2023-01-01T05:49:11;41.90;;;23.83;;
20110;SDS011;10216;42.658;23.248;2023-01-01T05:51:37;34.00;;;20.13;;
20110;SDS011;10216;42.658;23.248;2023-01-01T05:54:02;29.80;;;18.10;;
20110;SDS011;10216;42.658;23.248;2023-01-01T05:56:27;28.97;;;17.93;;
20110;SDS011;10216;42.658;23.248;2023-01-01T05:58:53;31.87;;;19.00;;
20110;SDS011;10216;42.658;23.248;2023-01-01T06:01:19;36.40;;;19.70;;
20110;SDS011;10216;42.658;23.248;2023-01-01T06:03:45;52.07;;;26.97;;
20110;SDS011;10216;42.658;23.248;2023-01-01T06:06:13;64.00;;;35.10;;
20110;SDS011;10216;42.658;23.248;2023-01-01T06:08:38;65.40;;;35.83;;
20110;SDS011;10216;42.658;23.248;2023-01-01T06:11:04;71.77;;;40.80;;
20110;SDS011;10216;42.658;23.248;2023-01-01T06:13:30;68.20;;;41.40;;
20110;SDS011;10216;42.658;23.248;2023-01-01T06:15:56;70.73;;;38.90;;
20110;SDS011;10216;42.658;23.248;2023-01-01T06:18:21;69.07;;;39.87;;
20110;SDS011;10216;42.658;23.248;2023-01-01T06:20:47;71.70;;;41.97;;
20110;SDS011;10216;42.658;23.248;2023-01-01T06:23:12;68.73;;;38.70;;
20110;SDS011;10216;42.658;23.248;2023-01-01T06:25:37;62.63;;;36.63;;
20110;SDS011;10216;42.658;23.248;2023-01-01T06:28:03;63.00;;;34.90;;
20110;SDS011;10216;42.658;23.248;2023-01-01T06:30:28;53.77;;;30.10;;
20110;SDS011;10216;42.658;23.248;2023-01-01T06:32:55;56.23;;;31.30;;
20110;SDS011;10216;42.658;23.248;2023-01-01T06:35:21;52.97;;;32.43;;
20110;SDS011;10216;42.658;23.248;2023-01-01T06:37:46;60.47;;;33.67;;
20110;SDS011;10216;42.658;23.248;2023-01-01T06:40:14;60.07;;;33.20;;
20110;SDS011;10216;42.658;23.248;2023-01-01T06:42:39;58.90;;;32.87;;
20110;SDS011;10216;42.658;23.248;2023-01-01T06:45:04;60.07;;;33.13;;
20110;SDS011;10216;42.658;23.248;2023-01-01T06:47:32;57.77;;;32.43;;
20110;SDS011;10216;42.658;23.248;2023-01-01T06:49:57;52.13;;;30.13;;
20110;SDS011;10216;42.658;23.248;2023-01-01T06:52:22;51.47;;;31.30;;
20110;SDS011;10216;42.658;23.248;2023-01-01T06:54:47;52.10;;;30.23;;
20110;SDS011;10216;42.658;23.248;2023-01-01T06:57:13;53.50;;;31.60;;
20110;SDS011;10216;42.658;23.248;2023-01-01T06:59:38;57.73;;;32.47;;
20110;SDS011;10216;42.658;23.248;2023-01-01T07:02:03;59.33;;;32.93;;
20110;SDS011;10216;42.658;23.248;2023-01-01T07:04:28;52.83;;;32.03;;
20110;SDS011;10216;42.658;23.248;2023-01-01T07:06:54;61.13;;;33.10;;
20110;SDS011;10216;42.658;23.248;2023-01-01T07:09:19;58.83;;;32.37;;
20110;SDS011;10216;42.658;23.248;2023-01-01T07:11:44;58.40;;;33.77;;
20110;SDS011;10216;42.658;23.248;2023-01-01T07:14:09;65.00;;;35.10;;
20110;SDS011;10216;42.658;23.248;2023-01-01T07:16:34;62.07;;;34.37;;
20110;SDS011;10216;42.658;23.248;2023-01-01T07:19:00;64.57;;;36.03;;
20110;SDS011;10216;42.658;23.248;2023-01-01T07:21:44;69.30;;;39.70;;
20110;SDS011;10216;42.658;23.248;2023-01-01T07:24:10;75.97;;;39.33;;
20110;SDS011;10216;42.658;23.248;2023-01-01T07:26:36;78.47;;;41.03;;
20110;SDS011;10216;42.658;23.248;2023-01-01T07:29:01;76.27;;;40.57;;
20110;SDS011;10216;42.658;23.248;2023-01-01T07:31:26;82.87;;;43.50;;
20110;SDS011;10216;42.658;23.248;2023-01-01T07:33:52;80.03;;;43.97;;
20110;SDS011;10216;42.658;23.248;2023-01-01T07:36:17;78.77;;;45.00;;
20110;SDS011;10216;42.658;23.248;2023-01-01T07:38:42;99.13;;;54.27;;
20110;SDS011;10216;42.658;23.248;2023-01-01T07:41:07;102.00;;;57.23;;
20110;SDS011;10216;42.658;23.248;2023-01-01T07:43:33;113.70;;;67.87;;
20110;SDS011;10216;42.658;23.248;2023-01-01T07:45:58;118.80;;;70.50;;
20110;SDS011;10216;42.658;23.248;2023-01-01T07:48:23;119.50;;;71.20;;
20110;SDS011;10216;42.658;23.248;2023-01-01T07:50:49;115.60;;;73.07;;
20110;SDS011;10216;42.658;23.248;2023-01-01T07:53:14;145.33;;;78.80;;
20110;SDS011;10216;42.658;23.248;2023-01-01T07:55:39;138.60;;;88.47;;
20110;SDS011;10216;42.658;23.248;2023-01-01T07:58:05;142.37;;;88.80;;
20110;SDS011;10216;42.658;23.248;2023-01-01T08:00:30;142.73;;;91.73;;
20110;SDS011;10216;42.658;23.248;2023-01-01T08:02:55;144.67;;;95.07;;
20110;SDS011;10216;42.658;23.248;2023-01-01T08:05:21;151.00;;;100.57;;
20110;SDS011;10216;42.658;23.248;2023-01-01T08:07:47;124.33;;;79.07;;
20110;SDS011;10216;42.658;23.248;2023-01-01T08:10:13;120.20;;;76.07;;
20110;SDS011;10216;42.658;23.248;2023-01-01T08:12:38;119.00;;;74.53;;
20110;SDS011;10216;42.658;23.248;2023-01-01T08:15:03;113.63;;;72.90;;
20110;SDS011;10216;42.658;23.248;2023-01-01T08:17:29;111.83;;;71.87;;
20110;SDS011;10216;42.658;23.248;2023-01-01T08:19:54;108.73;;;72.43;;
20110;SDS011;10216;42.658;23.248;2023-01-01T08:22:19;98.07;;;64.53;;
20110;SDS011;10216;42.658;23.248;2023-01-01T08:24:44;121.40;;;80.47;;
20110;SDS011;10216;42.658;23.248;2023-01-01T08:27:11;115.37;;;78.20;;
20110;SDS011;10216;42.658;23.248;2023-01-01T08:29:37;113.27;;;72.43;;
20110;SDS011;10216;42.658;23.248;2023-01-01T08:32:02;102.63;;;66.47;;
20110;SDS011;10216;42.658;23.248;2023-01-01T08:34:27;125.57;;;82.83;;
20110;SDS011;10216;42.658;23.248;2023-01-01T08:36:52;117.43;;;74.93;;
20110;SDS011;10216;42.658;23.248;2023-01-01T08:39:18;115.37;;;73.60;;
20110;SDS011;10216;42.658;23.248;2023-01-01T08:41:43;111.30;;;73.53;;
20110;SDS011;10216;42.658;23.248;2023-01-01T08:44:08;109.27;;;72.07;;
20110;SDS011;10216;42.658;23.248;2023-01-01T08:46:33;104.07;;;69.77;;
20110;SDS011;10216;42.658;23.248;2023-01-01T08:48:58;106.53;;;72.10;;
20110;SDS011;10216;42.658;23.248;2023-01-01T08:51:24;106.43;;;70.40;;
20110;SDS011;10216;42.658;23.248;2023-01-01T08:53:49;106.50;;;70.80;;
20110;SDS011;10216;42.658;23.248;2023-01-01T08:56:14;107.73;;;72.50;;
20110;SDS011;10216;42.658;23.248;2023-01-01T08:58:40;106.33;;;73.37;;
20110;SDS011;10216;42.658;23.248;2023-01-01T09:01:05;111.47;;;71.97;;
20110;SDS011;10216;42.658;23.248;2023-01-01T09:03:31;109.37;;;73.13;;
20110;SDS011;10216;42.658;23.248;2023-01-01T09:05:57;115.30;;;77.37;;
20110;SDS011;10216;42.658;23.248;2023-01-01T09:08:22;112.47;;;78.13;;
20110;SDS011;10216;42.658;23.248;2023-01-01T09:10:48;118.53;;;80.13;;
20110;SDS011;10216;42.658;23.248;2023-01-01T09:13:14;123.17;;;82.73;;
20110;SDS011;10216;42.658;23.248;2023-01-01T09:15:40;133.20;;;88.50;;
20110;SDS011;10216;42.658;23.248;2023-01-01T09:18:07;127.77;;;86.03;;
20110;SDS011;10216;42.658;23.248;2023-01-01T09:20:32;126.23;;;87.13;;
20110;SDS011;10216;42.658;23.248;2023-01-01T09:22:57;135.10;;;93.07;;
20110;SDS011;10216;42.658;23.248;2023-01-01T09:25:22;135.83;;;88.80;;
20110;SDS011;10216;42.658;23.248;2023-01-01T09:27:47;133.10;;;91.37;;
20110;SDS011;10216;42.658;23.248;2023-01-01T09:30:13;131.63;;;90.80;;
20110;SDS011;10216;42.658;23.248;2023-01-01T09:32:38;133.80;;;91.87;;
20110;SDS011;10216;42.658;23.248;2023-01-01T09:35:03;130.83;;;92.23;;
20110;SDS011;10216;42.658;23.248;2023-01-01T09:37:29;131.57;;;89.73;;
20110;SDS011;10216;42.658;23.248;2023-01-01T09:39:55;131.13;;;90.53;;
20110;SDS011;10216;42.658;23.248;2023-01-01T09:44:52;119.60;;;86.13;;
20110;SDS011;10216;42.658;23.248;2023-01-01T09:49:45;132.10;;;89.00;;
20110;SDS011;10216;42.658;23.248;2023-01-01T09:52:12;136.00;;;92.70;;
20110;SDS011;10216;42.658;23.248;2023-01-01T09:54:39;124.67;;;88.43;;
20110;SDS011;10216;42.658;23.248;2023-01-01T09:57:06;135.10;;;92.80;;
20110;SDS011;10216;42.658;23.248;2023-01-01T09:59:34;128.73;;;92.63;;
20110;SDS011;10216;42.658;23.248;2023-01-01T10:02:10;131.50;;;93.67;;
20110;SDS011;10216;42.658;23.248;2023-01-01T10:09:41;130.80;;;94.37;;
20110;SDS011;10216;42.658;23.248;2023-01-01T10:12:12;133.07;;;93.40;;
20110;SDS011;10216;42.658;23.248;2023-01-01T10:14:42;128.97;;;92.97;;
20110;SDS011;10216;42.658;23.248;2023-01-01T10:17:20;136.67;;;97.67;;
20110;SDS011;10216;42.658;23.248;2023-01-01T10:19:48;141.10;;;97.60;;
20110;SDS011;10216;42.658;23.248;2023-01-01T10:22:18;134.80;;;94.20;;
20110;SDS011;10216;42.658;23.248;2023-01-01T10:24:46;137.43;;;97.00;;
20110;SDS011;10216;42.658;23.248;2023-01-01T10:27:25;130.33;;;90.90;;
20110;SDS011;10216;42.658;23.248;2023-01-01T10:29:51;124.73;;;88.90;;
20110;SDS011;10216;42.658;23.248;2023-01-01T10:32:35;132.70;;;92.23;;
20110;SDS011;10216;42.658;23.248;2023-01-01T10:35:09;128.80;;;91.57;;
20110;SDS011;10216;42.658;23.248;2023-01-01T10:37:36;124.50;;;88.63;;
20110;SDS011;10216;42.658;23.248;2023-01-01T10:40:02;120.53;;;88.60;;
20110;SDS011;10216;42.658;23.248;2023-01-01T10:42:29;122.60;;;88.37;;
20110;SDS011;10216;42.658;23.248;2023-01-01T10:44:54;125.03;;;89.87;;
20110;SDS011;10216;42.658;23.248;2023-01-01T10:49:53;120.80;;;87.20;;
20110;SDS011;10216;42.658;23.248;2023-01-01T10:52:18;114.43;;;83.30;;
20110;SDS011;10216;42.658;23.248;2023-01-01T10:54:47;116.33;;;84.53;;
20110;SDS011;10216;42.658;23.248;2023-01-01T10:57:15;122.77;;;87.47;;
20110;SDS011;10216;42.658;23.248;2023-01-01T10:59:41;121.83;;;85.77;;
20110;SDS011;10216;42.658;23.248;2023-01-01T11:02:13;115.63;;;84.97;;
20110;SDS011;10216;42.658;23.248;2023-01-01T11:04:39;120.83;;;87.60;;
20110;SDS011;10216;42.658;23.248;2023-01-01T11:07:05;125.07;;;88.23;;
20110;SDS011;10216;42.658;23.248;2023-01-01T11:09:30;129.93;;;90.20;;
20110;SDS011;10216;42.658;23.248;2023-01-01T11:11:59;124.83;;;87.57;;
20110;SDS011;10216;42.658;23.248;2023-01-01T11:14:29;136.83;;;91.70;;
20110;SDS011;10216;42.658;23.248;2023-01-01T11:16:56;124.97;;;88.07;;
20110;SDS011;10216;42.658;23.248;2023-01-01T11:22:36;122.00;;;88.03;;
20110;SDS011;10216;42.658;23.248;2023-01-01T11:25:09;134.73;;;92.37;;
20110;SDS011;10216;42.658;23.248;2023-01-01T11:27:40;136.20;;;93.63;;
20110;SDS011;10216;42.658;23.248;2023-01-01T11:30:27;139.97;;;98.40;;
20110;SDS011;10216;42.658;23.248;2023-01-01T11:33:00;144.53;;;101.10;;
20110;SDS011;10216;42.658;23.248;2023-01-01T11:35:31;141.70;;;98.77;;
20110;SDS011;10216;42.658;23.248;2023-01-01T11:37:57;128.43;;;92.90;;
20110;SDS011;10216;42.658;23.248;2023-01-01T11:40:24;138.53;;;94.27;;
20110;SDS011;10216;42.658;23.248;2023-01-01T11:42:52;125.53;;;96.93;;
20110;SDS011;10216;42.658;23.248;2023-01-01T11:45:22;126.60;;;95.80;;
20110;SDS011;10216;42.658;23.248;2023-01-01T11:47:55;113.83;;;88.50;;
20110;SDS011;10216;42.658;23.248;2023-01-01T11:52:54;107.67;;;87.03;;
20110;SDS011;10216;42.658;23.248;2023-01-01T11:58:05;114.73;;;89.47;;
20110;SDS011;10216;42.658;23.248;2023-01-01T12:00:33;101.97;;;81.23;;
20110;SDS011;10216;42.658;23.248;2023-01-01T12:08:32;97.77;;;81.27;;
20110;SDS011;10216;42.658;23.248;2023-01-01T12:11:06;97.93;;;81.70;;
20110;SDS011;10216;42.658;23.248;2023-01-01T12:13:36;104.40;;;83.88;;
20110;SDS011;10216;42.658;23.248;2023-01-01T12:16:08;89.68;;;78.78;;
20110;SDS011;10216;42.658;23.248;2023-01-01T12:18:38;88.60;;;76.93;;
20110;SDS011;10216;42.658;23.248;2023-01-01T12:21:09;93.18;;;76.03;;
20110;SDS011;10216;42.658;23.248;2023-01-01T12:23:35;94.20;;;76.13;;
20110;SDS011;10216;42.658;23.248;2023-01-01T12:31:32;91.00;;;76.57;;
20110;SDS011;10216;42.658;23.248;2023-01-01T12:47:10;76.93;;;63.35;;
20110;SDS011;10216;42.658;23.248;2023-01-01T12:54:53;72.32;;;59.10;;
20110;SDS011;10216;42.658;23.248;2023-01-01T12:57:42;70.50;;;59.27;;
20110;SDS011;10216;42.658;23.248;2023-01-01T13:00:13;67.73;;;56.90;;
20110;SDS011;10216;42.658;23.248;2023-01-01T13:02:42;68.97;;;57.20;;
20110;SDS011;10216;42.658;23.248;2023-01-01T13:05:21;71.07;;;56.40;;
20110;SDS011;10216;42.658;23.248;2023-01-01T13:07:48;65.53;;;53.37;;
20110;SDS011;10216;42.658;23.248;2023-01-01T13:10:22;66.10;;;51.97;;
20110;SDS011;10216;42.658;23.248;2023-01-01T13:12:48;63.40;;;48.73;;
20110;SDS011;10216;42.658;23.248;2023-01-01T13:18:04;53.67;;;39.37;;
20110;SDS011;10216;42.658;23.248;2023-01-01T13:20:29;55.60;;;38.13;;
20110;SDS011;10216;42.658;23.248;2023-01-01T13:22:55;46.10;;;34.30;;
20110;SDS011;10216;42.658;23.248;2023-01-01T13:25:21;44.90;;;32.33;;
20110;SDS011;10216;42.658;23.248;2023-01-01T13:35:36;39.53;;;28.73;;
20110;SDS011;10216;42.658;23.248;2023-01-01T13:38:01;43.37;;;29.60;;
20110;SDS011;10216;42.658;23.248;2023-01-01T13:40:28;42.67;;;28.83;;
20110;SDS011;10216;42.658;23.248;2023-01-01T13:50:19;26.23;;;16.97;;
20110;SDS011;10216;42.658;23.248;2023-01-01T13:52:54;24.20;;;16.63;;
20110;SDS011;10216;42.658;23.248;2023-01-01T14:00:21;21.67;;;14.47;;
20110;SDS011;10216;42.658;23.248;2023-01-01T14:02:55;15.60;;;11.60;;
20110;SDS011;10216;42.658;23.248;2023-01-01T14:05:30;15.63;;;9.90;;
20110;SDS011;10216;42.658;23.248;2023-01-01T14:07:57;14.20;;;9.60;;
20110;SDS011;10216;42.658;23.248;2023-01-01T14:10:23;14.77;;;10.00;;
20110;SDS011;10216;42.658;23.248;2023-01-01T14:12:49;14.83;;;10.33;;
20110;SDS011;10216;42.658;23.248;2023-01-01T14:15:21;19.27;;;11.43;;
20110;SDS011;10216;42.658;23.248;2023-01-01T14:17:47;15.60;;;10.53;;
20110;SDS011;10216;42.658;23.248;2023-01-01T14:20:13;15.53;;;10.60;;
20110;SDS011;10216;42.658;23.248;2023-01-01T14:22:42;13.73;;;10.10;;
20110;SDS011;10216;42.658;23.248;2023-01-01T14:25:12;12.77;;;8.67;;
20110;SDS011;10216;42.658;23.248;2023-01-01T14:27:37;13.40;;;9.60;;
20110;SDS011;10216;42.658;23.248;2023-01-01T14:30:03;18.40;;;11.40;;
20110;SDS011;10216;42.658;23.248;2023-01-01T14:32:28;19.33;;;12.00;;
20110;SDS011;10216;42.658;23.248;2023-01-01T14:35:00;15.57;;;11.43;;
20110;SDS011;10216;42.658;23.248;2023-01-01T14:37:25;14.10;;;9.67;;
20110;SDS011;10216;42.658;23.248;2023-01-01T14:42:56;11.83;;;7.03;;
20110;SDS011;10216;42.658;23.248;2023-01-01T14:45:22;10.30;;;6.33;;
20110;SDS011;10216;42.658;23.248;2023-01-01T14:47:49;10.93;;;7.60;;
20110;SDS011;10216;42.658;23.248;2023-01-01T14:52:41;12.50;;;9.23;;
20110;SDS011;10216;42.658;23.248;2023-01-01T14:55:07;12.60;;;8.40;;
20110;SDS011;10216;42.658;23.248;2023-01-01T14:57:33;10.97;;;8.87;;
20110;SDS011;10216;42.658;23.248;2023-01-01T14:59:59;12.90;;;9.23;;
20110;SDS011;10216;42.658;23.248;2023-01-01T15:02:26;13.60;;;9.90;;
20110;SDS011;10216;42.658;23.248;2023-01-01T15:04:53;13.67;;;10.47;;
20110;SDS011;10216;42.658;23.248;2023-01-01T15:07:25;15.70;;;10.60;;
20110;SDS011;10216;42.658;23.248;2023-01-01T15:09:51;14.33;;;10.17;;
20110;SDS011;10216;42.658;23.248;2023-01-01T15:12:17;16.50;;;11.07;;
20110;SDS011;10216;42.658;23.248;2023-01-01T15:14:45;16.60;;;10.70;;
20110;SDS011;10216;42.658;23.248;2023-01-01T15:17:12;14.13;;;9.73;;
20110;SDS011;10216;42.658;23.248;2023-01-01T15:19:38;14.33;;;9.53;;
20110;SDS011;10216;42.658;23.248;2023-01-01T15:22:17;16.03;;;10.47;;
20110;SDS011;10216;42.658;23.248;2023-01-01T15:24:47;14.33;;;11.07;;
20110;SDS011;10216;42.658;23.248;2023-01-01T15:27:19;17.10;;;12.80;;
20110;SDS011;10216;42.658;23.248;2023-01-01T15:29:45;15.77;;;11.80;;
20110;SDS011;10216;42.658;23.248;2023-01-01T15:32:14;14.67;;;10.90;;
20110;SDS011;10216;42.658;23.248;2023-01-01T15:34:46;16.40;;;10.53;;
20110;SDS011;10216;42.658;23.248;2023-01-01T15:39:48;19.63;;;10.60;;
20110;SDS011;10216;42.658;23.248;2023-01-01T15:43:04;13.63;;;10.30;;
20110;SDS011;10216;42.658;23.248;2023-01-01T15:45:19;18.23;;;9.70;;
20110;SDS011;10216;42.658;23.248;2023-01-01T15:47:46;16.90;;;11.90;;
20110;SDS011;10216;42.658;23.248;2023-01-01T15:50:22;18.10;;;12.40;;
20110;SDS011;10216;42.658;23.248;2023-01-01T15:52:48;18.67;;;12.60;;